• Join FlightAware (Why Join?)
  • Login
  • US Flag 
01:09PM EDT


 

Airport Tracker/Info


-or-


 

Live Flight TrackerFlight Track Log ✈ EJA922 ✈ 01-Jul-2013 ✈ KBUR - KCRQ

Flight Track Log - Related Links

Times and Time Zones

All times are in EDT time to prevent confusion due to time zone crossing. See the EJA922 flight status page for this flight to view local times or setup timezone preferences in your user account.

Time Position Orientation Groundspeed Altitude Reporting Facility
EDT Latitude Longitude Course Direction KTS MPH feet Rate Location/Type
08:06PM 34.1500 -118.4167 231° Southwest 248 285 5,800  Level Southern California TRACON
08:07PM 34.1817 -118.4533 316° Northwest 246 283 9,000 2,580 Climbing Los Angeles Center
08:08PM 34.1864 -118.3761 86° East 269 310 11,000 960 Climbing Los Angeles Center
08:09PM 34.1467 -118.2703 114° Southeast 339 390 11,000  Level Los Angeles Center
08:10PM 34.0497 -118.2058 151° Southeast 387 445 11,000  Level Los Angeles Center
08:11PM 33.9447 -118.1456 155° Southeast 409 471 11,000  Level Los Angeles Center
08:12PM 33.8333 -118.0833 155° Southeast 388 447 11,000  Level Southern California TRACON
08:13PM 33.7500 -118.0167 146° Southeast 410 472 11,000 -300 Level Southern California TRACON
08:14PM 33.7000 -117.9500 132° Southeast 275 316 10,400 -960 Descending Southern California TRACON
08:15PM 33.6333 -117.8833 140° Southeast 288 331 9,100 -900 Descending Southern California TRACON
08:16PM 33.5833 -117.8167 132° Southeast 289 333 8,600 -960 Descending Southern California TRACON
08:17PM 33.5167 -117.7500 140° Southeast 286 329 7,200 -1,500 Descending Southern California TRACON
08:18PM 33.4667 -117.6833 132° Southeast 282 325 5,600 -1,140 Descending Southern California TRACON
08:19PM 33.4167 -117.6167 132° Southeast 273 314 5,000 -360 Descending Southern California TRACON
08:19PM 33.3917 -117.5931 142° Southeast 278 320 5,000  Level Los Angeles Center
08:20PM 33.3275 -117.5172 135° Southeast 273 314 5,000 -120 Level Los Angeles Center
08:21PM 33.2739 -117.4533 135° Southeast 273 314 4,800 -600 Descending Los Angeles Center
08:22PM 33.2181 -117.3867 135° Southeast 253 291 3,800 -1,140 Descending Los Angeles Center
08:24PM 33.1742 -117.3333 135° Southeast 237 273 2,500 -1,020 Descending Los Angeles Center
08:25PM 33.1683 -117.2636 96° East 239 275 1,800 -360 Descending Los Angeles Center
08:26PM 33.1500 -117.2167 115° Southeast 145 167 1,800 -360 Level Southern California TRACON
08:27PM 33.1333 -117.2500 239° Southwest 133 153 1,000 -780 Descending Southern California TRACON